Andalusia, AL

11:28 PM CDT on May 27, 2015 (GMT -0500)
Chigger Hill off Moore Rd | | Change Station
CLOSE
Current Station
Personal Weather Station
Location: Andalusia, AL
Elevation: 280 ft
Nearby Weather Stations

Elev 280 ft 31.25 °N, 86.50 °W | Updated 7 seconds ago

Partly Cloudy
Partly Cloudy
69.7 °F
Feels Like 69.7 °F
N
0.0
Wind Variable Wind from SW
Gusts 0.0 mph

Today
High -- | Low -- °F
--% Chance of Precip.
Yesterday
High -- | Low -- °F
Precip. -- in
5:45 AM 7:43 PM
Waxing Gibbous, 72% visible
Pressure 30.16 in
Visibility 10.0 miles
Clouds Few 2800 ft
Dew Point 30 °F
Humidity 23%
Rainfall 0.43 in
Snow Depth Not available.
UV 0 out of 12
Pollen .70 out of 12
Air Quality Not available.
Flu Activity Sporadic
METAR K79J 280356Z AUTO 12004KT 10SM FEW028 23/20 A3017 RMK AO2 SLP211 T02280200 $

More Conditions Fewer Conditions

Pressure 30.16 in
Visibility 10.0 miles
Clouds Few 2800 ft
Dew Point 30 °F
Humidity 23%
Rainfall 0.43 in
Snow Depth Not available.
UV 0 out of 12
Pollen .70 out of 12
Air Quality Not available.
Flu Activity Sporadic
METAR K79J 280356Z AUTO 12004KT 10SM FEW028 23/20 A3017 RMK AO2 SLP211 T02280200 $

More Conditions Fewer Conditions

10-Day Weather Forecast

Almanac

Astronomy

May. 27, 2015 Rise Set
Actual Time
Civil Twilight
Nautical Twilight
Astronomical Twilight
Moon
Length of Visible Light
Length of Day
Tomorrow will be .
, % of the Moon is Illuminated

Today's Extremes

State Highs State Lows

Community

WunderPhotos

Upload Photos

1,824,918 photos uploaded!

WunderBlogs® & News

Nearby

Air Quality

  Air Quality AQ Index Pollutant
Not available.

Snow Depth

Station Depth Elevation

Earthquake Activity

City Distance Mag. Time & Date
Minimum magnitude displayed is 2.5.

Coastal Water Temperatures

Place Temperature

Stations

Nearby Weather Stations

Station Location Temp. Windchill Dew Point Humidity Wind Precip. Elev Updated Type